Time;durP1;ratioP1;P1;durP2;ratioP2;P2;SDS_P1;SDS_P2;PMS_P1;PMS_P2;Temp;Humidity;BMP_temperature;BMP_pressure;BME280_temperature;BME280_humidity;BME280_pressure;Samples;Min_cycle;Max_cycle;Signal;HPM_P1;HPM_P2
2021/08/20 00:01:29;;;;;;;;;;;;;;;16.11;100.00;100705.41;5090962;28;19982;-72
2021/08/20 00:03:58;;;;;;;;;;;;;;;16.10;100.00;100706.47;5091392;28;19928;-72
2021/08/20 00:06:25;;;;;;;;;;;;;;;16.13;100.00;100702.50;5091501;28;20661;-73
2021/08/20 00:08:52;;;;;;;;;;;;;;;16.12;100.00;100706.28;5091063;28;20019;-72
2021/08/20 00:11:18;;;;;;;;;;;;;;;16.12;100.00;100709.03;5073069;28;19967;-73
2021/08/20 00:13:45;;;;;;;;;;;;;;;16.09;100.00;100701.13;5091327;28;20018;-73
2021/08/20 00:16:11;;;;;;;;;;;;;;;16.10;100.00;100702.84;5091068;28;19928;-73
2021/08/20 00:18:37;;;;;;;;;;;;;;;16.11;100.00;100701.84;5090957;28;19928;-72
2021/08/20 00:21:03;;;;;;;;;;;;;;;16.11;100.00;100699.94;5091234;28;20347;-72
2021/08/20 00:23:30;;;;;;;;;;;;;;;16.10;100.00;100700.97;5091238;28;20010;-73
2021/08/20 00:25:57;;;;;;;;;;;;;;;16.12;100.00;100703.56;5091121;28;19924;-73
2021/08/20 00:28:24;;;;;;;;;;;;;;;16.09;100.00;100706.59;5091876;28;20023;-73
2021/08/20 00:30:50;;;;;;;;;;;;;;;16.06;100.00;100705.03;5095274;28;19932;-73
2021/08/20 00:33:16;;;;;;;;;;;;;;;16.05;100.00;100703.34;5076995;28;20023;-71
2021/08/20 00:35:44;;;;;;;;;;;;;;;16.02;100.00;100700.91;5094982;28;20011;-71
2021/08/20 00:38:11;;;;;;;;;;;;;;;16.01;100.00;100710.16;5094953;28;19970;-71
2021/08/20 00:40:39;;;;;;;;;;;;;;;15.99;100.00;100703.97;5095199;28;19928;-71
2021/08/20 00:43:06;;;;;;;;;;;;;;;15.95;100.00;100706.16;5076888;28;20015;-73
2021/08/20 00:45:33;;;;;;;;;;;;;;;15.95;100.00;100710.78;5095172;28;20499;-71
2021/08/20 00:48:00;;;;;;;;;;;;;;;15.95;100.00;100716.25;5095031;28;19928;-72
2021/08/20 00:50:28;;;;;;;;;;;;;;;15.94;100.00;100709.06;5076887;28;19927;-71
2021/08/20 00:52:55;;;;;;;;;;;;;;;15.91;100.00;100723.94;5077016;28;19925;-73
2021/08/20 00:55:24;;;;;;;;;;;;;;;15.90;100.00;100712.13;5094306;28;19966;-73
2021/08/20 00:57:51;;;;;;;;;;;;;;;15.92;100.00;100719.34;5094672;28;19924;-71
2021/08/20 01:00:22;;;;;;;;;;;;;;;15.94;100.00;100720.00;5094677;28;20384;-71
2021/08/20 01:02:49;;;;;;;;;;;;;;;15.96;100.00;100718.84;5094682;28;19947;-72
2021/08/20 01:05:19;;;;;;;;;;;;;;;15.93;100.00;100715.56;5076640;28;19960;-72
2021/08/20 01:07:45;;;;;;;;;;;;;;;15.93;100.00;100712.81;5093977;28;19932;-72
2021/08/20 01:10:15;;;;;;;;;;;;;;;15.94;100.00;100715.41;5076326;28;20296;-72
2021/08/20 01:12:41;;;;;;;;;;;;;;;15.90;100.00;100708.56;5075857;28;19969;-72
2021/08/20 01:15:08;;;;;;;;;;;;;;;15.86;100.00;100702.53;5076175;28;20393;-72
2021/08/20 01:17:36;;;;;;;;;;;;;;;15.83;100.00;100712.94;5076149;28;19924;-73
2021/08/20 01:20:05;;;;;;;;;;;;;;;15.85;100.00;100714.50;5076385;28;20019;-72
2021/08/20 01:22:31;;;;;;;;;;;;;;;15.81;100.00;100713.09;5076042;28;20457;-72
2021/08/20 01:25:00;;;;;;;;;;;;;;;15.82;100.00;100711.19;5076156;28;19926;-72
2021/08/20 01:27:32;;;;;;;;;;;;;;;15.79;100.00;100695.94;5075827;28;19931;-72
2021/08/20 01:29:59;;;;;;;;;;;;;;;15.77;100.00;100700.72;5093619;28;19924;-72
2021/08/20 01:32:26;;;;;;;;;;;;;;;15.73;100.00;100699.31;5075836;28;19964;-72
2021/08/20 01:34:53;;;;;;;;;;;;;;;15.72;100.00;100703.06;5076138;28;19924;-73
2021/08/20 01:37:19;;;;;;;;;;;;;;;15.73;100.00;100705.63;5075835;28;19931;-66
2021/08/20 01:39:46;;;;;;;;;;;;;;;15.72;100.00;100711.28;5075476;28;19924;-66
2021/08/20 01:42:15;;;;;;;;;;;;;;;15.72;100.00;100714.00;5075593;28;19924;-69
2021/08/20 01:44:41;;;;;;;;;;;;;;;15.71;100.00;100712.28;5075903;28;20028;-69
2021/08/20 01:47:09;;;;;;;;;;;;;;;15.72;100.00;100711.28;5075567;28;20307;-69
2021/08/20 01:49:36;;;;;;;;;;;;;;;15.73;100.00;100705.63;5075581;28;20484;-69
2021/08/20 01:52:02;;;;;;;;;;;;;;;15.73;100.00;100718.47;5075685;28;19928;-69
2021/08/20 01:54:31;;;;;;;;;;;;;;;15.72;100.00;100716.75;5075401;28;19928;-69
2021/08/20 01:56:59;;;;;;;;;;;;;;;15.73;100.00;100719.31;5093693;28;20361;-68
2021/08/20 01:59:27;;;;;;;;;;;;;;;15.74;100.00;100718.31;5075236;28;20371;-68
2021/08/20 02:01:54;;;;;;;;;;;;;;;15.74;100.00;100721.03;5075617;28;19924;-68
2021/08/20 02:04:24;;;;;;;;;;;;;;;15.77;100.00;100713.53;5075444;28;19931;-68
2021/08/20 02:06:51;;;;;;;;;;;;;;;15.73;100.00;100723.94;5075113;28;20064;-68
2021/08/20 02:09:18;;;;;;;;;;;;;;;15.74;100.00;100715.56;5075310;28;19928;-68
2021/08/20 02:11:44;;;;;;;;;;;;;;;15.74;100.00;100720.19;5074683;28;19928;-69
2021/08/20 02:14:11;;;;;;;;;;;;;;;15.76;100.00;100711.81;5093615;28;19928;-68
2021/08/20 02:16:40;;;;;;;;;;;;;;;15.74;100.00;100718.31;5075120;28;19936;-68
2021/08/20 02:19:13;;;;;;;;;;;;;;;15.71;100.00;100723.22;5075153;28;20353;-68
2021/08/20 02:21:40;;;;;;;;;;;;;;;15.70;100.00;100718.75;5074783;28;19928;-68
2021/08/20 02:24:15;;;;;;;;;;;;;;;15.68;100.00;100715.34;5074808;28;20323;-68
2021/08/20 02:26:46;;;;;;;;;;;;;;;15.68;100.00;100718.09;5074416;28;19928;-69
2021/08/20 02:29:12;;;;;;;;;;;;;;;15.66;100.00;100723.72;5092737;28;20436;-68
2021/08/20 02:31:40;;;;;;;;;;;;;;;15.64;100.00;100727.63;5074702;28;19935;-68
2021/08/20 02:34:11;;;;;;;;;;;;;;;15.64;100.00;100724.88;5074854;28;20349;-68
2021/08/20 02:36:37;;;;;;;;;;;;;;;15.62;100.00;100721.44;5074949;28;19928;-68
2021/08/20 02:39:04;;;;;;;;;;;;;;;15.62;100.00;100726.91;5074528;28;20015;-69
2021/08/20 02:41:30;;;;;;;;;;;;;;;15.63;100.00;100728.63;5074632;28;19924;-68
2021/08/20 02:43:59;;;;;;;;;;;;;;;15.62;100.00;100730.53;5074644;28;19927;-69
2021/08/20 02:46:25;;;;;;;;;;;;;;;15.62;100.00;100725.06;5074312;28;19924;-68
2021/08/20 02:48:54;;;;;;;;;;;;;;;15.64;100.00;100724.88;5074569;28;20016;-68
2021/08/20 02:51:20;;;;;;;;;;;;;;;15.62;100.00;100719.59;5073756;28;19974;-69
2021/08/20 02:53:46;;;;;;;;;;;;;;;15.65;100.00;100726.63;5073991;28;19924;-69
2021/08/20 02:56:13;;;;;;;;;;;;;;;15.64;100.00;100727.63;5074301;28;19954;-69
2021/08/20 02:58:47;;;;;;;;;;;;;;;15.62;100.00;100732.38;5074301;28;20369;-69
2021/08/20 03:01:14;;;;;;;;;;;;;;;15.61;100.00;100725.22;5092404;28;20441;-69
2021/08/20 03:03:40;;;;;;;;;;;;;;;15.62;100.00;100733.25;5074093;28;19938;-69
2021/08/20 03:06:16;;;;;;;;;;;;;;;15.62;100.00;100726.91;5074259;28;19989;-69
2021/08/20 03:08:43;;;;;;;;;;;;;;;15.60;100.00;100729.81;5073191;28;19955;-69
2021/08/20 03:11:10;;;;;;;;;;;;;;;15.61;100.00;100728.81;5073828;28;19955;-69
2021/08/20 03:13:39;;;;;;;;;;;;;;;15.62;100.00;100727.78;5073819;28;19935;-70
2021/08/20 03:16:06;;;;;;;;;;;;;;;15.61;100.00;100725.22;5073258;28;19931;-69
2021/08/20 03:18:33;;;;;;;;;;;;;;;15.62;100.00;100721.44;5073961;28;20303;-70
2021/08/20 03:21:02;;;;;;;;;;;;;;;15.60;100.00;100721.59;5073888;28;19928;-69
2021/08/20 03:23:37;;;;;;;;;;;;;;;15.59;100.00;100727.25;5073875;28;19927;-72
2021/08/20 03:26:06;;;;;;;;;;;;;;;15.59;100.00;100724.50;5074220;28;20443;-73
2021/08/20 03:28:37;;;;;;;;;;;;;;;15.61;100.00;100720.59;5076096;28;19924;-72
2021/08/20 03:31:04;;;;;;;;;;;;;;;15.61;100.00;100723.31;5074461;28;20572;-69
2021/08/20 03:33:34;;;;;;;;;;;;;;;15.62;100.00;100726.91;5073788;28;19924;-69
2021/08/20 03:36:12;;;;;;;;;;;;;;;15.59;100.00;100727.25;5073765;28;19931;-69
2021/08/20 03:38:40;;;;;;;;;;;;;;;15.60;100.00;100732.53;5073600;28;20041;-69
2021/08/20 03:41:08;;;;;;;;;;;;;;;15.56;100.00;100732.00;5073227;28;20383;-69
2021/08/20 03:43:54;;;;;;;;;;;;;;;15.55;100.00;100737.63;5091315;28;19924;-69
2021/08/20 03:46:23;;;;;;;;;;;;;;;15.51;100.00;100737.09;5073371;28;19930;-66
2021/08/20 03:48:50;;;;;;;;;;;;;;;15.50;100.00;100734.50;5073372;28;19924;-66
2021/08/20 03:51:16;;;;;;;;;;;;;;;15.49;100.00;100735.53;5085294;28;19943;-66
2021/08/20 03:53:45;;;;;;;;;;;;;;;15.48;100.00;100734.66;5064993;28;19936;-66
2021/08/20 03:56:12;;;;;;;;;;;;;;;15.45;100.00;100734.13;5070220;28;19949;-66
2021/08/20 03:58:41;;;;;;;;;;;;;;;15.37;100.00;100729.44;5071180;28;19970;-66
2021/08/20 04:01:12;;;;;;;;;;;;;;;15.31;100.00;100727.31;5054978;28;19932;-66
2021/08/20 04:03:41;;;;;;;;;;;;;;;15.25;100.00;100725.22;5072885;28;19928;-70
2021/08/20 04:06:19;;;;;;;;;;;;;;;15.16;100.00;100722.38;5068880;28;20056;-70
2021/08/20 04:08:47;;;;;;;;;;;;;;;15.12;100.00;100731.06;5052867;28;19943;-69
2021/08/20 04:11:38;;;;;;;;;;;;;;;15.04;100.00;100732.66;5058411;28;19924;-69
2021/08/20 04:14:09;;;;;;;;;;;;;;;14.96;100.00;100731.72;5091272;28;19928;-70
2021/08/20 04:16:36;;;;;;;;;;;;;;;14.91;100.00;100743.09;5065182;28;19931;-70
2021/08/20 04:19:03;;;;;;;;;;;;;;;14.87;100.00;100748.03;5054907;28;20387;-70
2021/08/20 04:21:30;;;;;;;;;;;;;;;14.81;100.00;100751.38;5069768;28;19969;-69
2021/08/20 04:23:59;;;;;;;;;;;;;;;14.81;100.00;100750.53;5070711;28;19931;-72
2021/08/20 04:26:27;;;;;;;;;;;;;;;14.83;100.00;100757.56;5072814;28;19925;-73
2021/08/20 04:29:02;;;;;;;;;;;;;;;14.73;100.00;100754.00;5089760;28;20426;-72
2021/08/20 04:31:52;;;;;;;;;;;;;;;14.65;100.00;100762.94;5044609;28;19931;-67
2021/08/20 04:34:48;;;;;;;;;;;;;;;14.59;100.00;100757.19;5052367;28;20204;-69
2021/08/20 04:37:33;;;;;;;;;;;;;;;14.47;100.00;100751.94;5088770;28;19924;-68
2021/08/20 04:40:15;;;;;;;;;;;;;;;14.39;100.00;100762.72;5072197;28;19924;-68
2021/08/20 04:43:00;;;;;;;;;;;;;;;14.39;100.00;100765.44;5071965;28;20013;-68
2021/08/20 04:45:44;;;;;;;;;;;;;;;14.39;100.00;100769.06;5072615;28;19924;-68
2021/08/20 04:48:29;;;;;;;;;;;;;;;14.43;100.00;100769.63;5090715;28;19935;-68
2021/08/20 04:51:12;;;;;;;;;;;;;;;14.53;100.00;100762.25;5073021;28;19924;-68
2021/08/20 04:53:45;;;;;;;;;;;;;;;14.51;100.00;100767.00;5091098;28;19943;-69
2021/08/20 04:56:21;;;;;;;;;;;;;;;14.52;100.00;100766.00;5091053;28;19924;-68
2021/08/20 04:58:48;;;;;;;;;;;;;;;14.55;100.00;100759.34;5072672;28;19924;-68
2021/08/20 05:01:15;;;;;;;;;;;;;;;14.56;100.00;100764.69;5072624;28;20379;-68
2021/08/20 05:03:42;;;;;;;;;;;;;;;14.62;100.00;100762.34;5090525;28;19924;-68
2021/08/20 05:06:12;;;;;;;;;;;;;;;14.71;100.00;100764.22;5072764;28;20437;-68
2021/08/20 05:08:38;;;;;;;;;;;;;;;14.75;100.00;100762.03;5090829;28;20317;-68
2021/08/20 05:11:04;;;;;;;;;;;;;;;14.74;100.00;100769.38;5090642;28;20022;-68
2021/08/20 05:13:32;;;;;;;;;;;;;;;14.73;100.00;100768.50;5090850;28;19962;-68
2021/08/20 05:15:58;;;;;;;;;;;;;;;14.76;100.00;100770.09;5092362;28;19939;-68
2021/08/20 05:18:24;;;;;;;;;;;;;;;14.80;100.00;100776.97;5094072;28;19924;-68
2021/08/20 05:20:51;;;;;;;;;;;;;;;14.73;100.00;100776.72;5076450;28;19959;-68
2021/08/20 05:23:17;;;;;;;;;;;;;;;14.78;100.00;100772.66;5076187;28;20455;-69
2021/08/20 05:25:44;;;;;;;;;;;;;;;14.76;100.00;100763.78;5094219;28;20026;-68
2021/08/20 05:28:12;;;;;;;;;;;;;;;14.77;100.00;100763.63;5075892;28;19928;-68
2021/08/20 05:30:40;;;;;;;;;;;;;;;14.80;100.00;100771.50;5083142;28;20396;-68
2021/08/20 05:33:07;;;;;;;;;;;;;;;14.81;100.00;100767.75;5078177;28;20027;-68
2021/08/20 05:35:34;;;;;;;;;;;;;;;14.87;100.00;100771.75;5087995;28;19967;-69
2021/08/20 05:38:01;;;;;;;;;;;;;;;14.90;100.00;100768.75;5093248;28;19968;-69
2021/08/20 05:40:28;;;;;;;;;;;;;;;14.98;100.00;100770.69;5092530;28;19979;-69
2021/08/20 05:42:54;;;;;;;;;;;;;;;15.01;100.00;100767.66;5093380;28;19956;-69
2021/08/20 05:45:20;;;;;;;;;;;;;;;15.04;100.00;100775.56;5087432;28;20018;-68
2021/08/20 05:47:48;;;;;;;;;;;;;;;15.06;100.00;100770.81;5085382;28;19964;-68
2021/08/20 05:50:14;;;;;;;;;;;;;;;15.03;100.00;100776.56;5074737;28;19931;-68
2021/08/20 05:52:40;;;;;;;;;;;;;;;15.02;100.00;100772.13;5060358;28;20353;-68
2021/08/20 05:55:08;;;;;;;;;;;;;;;14.96;100.00;100775.47;5090187;28;19985;-68
2021/08/20 05:57:34;;;;;;;;;;;;;;;14.89;100.00;100767.84;5093325;28;19978;-68
2021/08/20 06:00:00;;;;;;;;;;;;;;;14.87;100.00;100767.16;5092222;28;20284;-68
2021/08/20 06:02:27;;;;;;;;;;;;;;;14.87;100.00;100777.22;5093453;28;20011;-69
2021/08/20 06:04:55;;;;;;;;;;;;;;;14.86;100.00;100770.91;5072004;28;20019;-68
2021/08/20 06:07:21;;;;;;;;;;;;;;;14.82;100.00;100774.97;5075020;28;19928;-71
2021/08/20 06:09:47;;;;;;;;;;;;;;;14.85;100.00;100785.56;5085218;28;19924;-71
2021/08/20 06:12:14;;;;;;;;;;;;;;;14.87;100.00;100779.94;5088212;28;19924;-71
2021/08/20 06:14:40;;;;;;;;;;;;;;;14.83;100.00;100776.69;5091703;28;19955;-71
2021/08/20 06:17:06;;;;;;;;;;;;;;;14.86;100.00;100773.63;5093141;28;20095;-71
2021/08/20 06:19:33;;;;;;;;;;;;;;;14.89;100.00;100783.41;5092150;28;20392;-72
2021/08/20 06:22:01;;;;;;;;;;;;;;;14.86;100.00;100786.47;5091791;28;19978;-72
2021/08/20 06:24:27;;;;;;;;;;;;;;;14.92;100.00;100790.44;5077608;28;19924;-74
2021/08/20 06:26:53;;;;;;;;;;;;;;;14.83;100.00;100803.13;5086203;28;20031;-72
2021/08/20 06:29:20;;;;;;;;;;;;;;;14.77;100.00;100801.88;5089635;28;19959;-74
2021/08/20 06:31:49;;;;;;;;;;;;;;;14.81;100.00;100797.81;5068961;28;20316;-72
2021/08/20 06:34:15;;;;;;;;;;;;;;;14.86;100.00;100798.22;5072329;28;20011;-73
2021/08/20 06:36:41;;;;;;;;;;;;;;;14.88;100.00;100801.69;5087740;28;20407;-74
2021/08/20 06:39:09;;;;;;;;;;;;;;;14.83;100.00;100798.53;5087660;28;19935;-72
2021/08/20 06:41:35;;;;;;;;;;;;;;;14.89;100.00;100797.91;5092575;28;20011;-73
2021/08/20 06:44:02;;;;;;;;;;;;;;;14.96;100.00;100795.44;5072521;28;19971;-72
2021/08/20 06:46:28;;;;;;;;;;;;;;;15.08;100.00;100790.63;5085063;28;19959;-73
2021/08/20 06:48:54;;;;;;;;;;;;;;;15.15;100.00;100799.09;5072079;28;20019;-73
2021/08/20 06:51:21;;;;;;;;;;;;;;;15.39;100.00;100793.91;5075600;28;20446;-73
2021/08/20 06:53:47;;;;;;;;;;;;;;;15.55;100.00;100779.53;5092111;28;20023;-73
2021/08/20 06:56:15;;;;;;;;;;;;;;;15.78;100.00;100780.94;5086149;28;19931;-73
2021/08/20 06:58:41;;;;;;;;;;;;;;;15.78;100.00;100779.06;5092299;28;20018;-73
2021/08/20 07:01:07;;;;;;;;;;;;;;;15.80;100.00;100779.78;5087540;28;20015;-73
2021/08/20 07:03:33;;;;;;;;;;;;;;;15.88;100.00;100777.09;5090785;28;20415;-74
2021/08/20 07:06:00;;;;;;;;;;;;;;;15.98;100.00;100777.03;5080699;28;20140;-74
2021/08/20 07:08:26;;;;;;;;;;;;;;;15.95;100.00;100766.38;5092012;28;19924;-74
2021/08/20 07:10:54;;;;;;;;;;;;;;;16.01;100.00;100773.97;5091336;28;19996;-74
2021/08/20 07:13:22;;;;;;;;;;;;;;;15.97;100.00;100774.47;5091211;28;19939;-74
2021/08/20 07:15:48;;;;;;;;;;;;;;;15.94;100.00;100777.50;5071551;28;19924;-74
2021/08/20 07:18:15;;;;;;;;;;;;;;;15.93;100.00;100792.19;5080843;28;20015;-74
2021/08/20 07:20:42;;;;;;;;;;;;;;;15.90;100.00;100779.72;5072208;28;20253;-69
2021/08/20 07:23:08;;;;;;;;;;;;;;;16.00;100.00;100782.34;5091889;28;20363;-69
2021/08/20 07:25:34;;;;;;;;;;;;;;;16.05;100.00;100789.06;5066178;28;20018;-69
2021/08/20 07:28:01;;;;;;;;;;;;;;;16.06;100.00;100793.53;5074311;28;19932;-68
2021/08/20 07:30:28;;;;;;;;;;;;;;;16.09;100.00;100788.72;5078387;28;20367;-74
2021/08/20 07:32:54;;;;;;;;;;;;;;;16.05;100.00;100782.75;5071963;28;19942;-74
2021/08/20 07:35:21;;;;;;;;;;;;;;;16.06;100.00;100784.44;5072012;28;20019;-75
2021/08/20 07:37:47;;;;;;;;;;;;;;;16.11;100.00;100782.09;5081397;28;19924;-67
2021/08/20 07:40:13;;;;;;;;;;;;;;;16.13;100.00;100780.06;5091389;28;20014;-67
2021/08/20 07:42:40;;;;;;;;;;;;;;;16.14;100.00;100776.31;5080239;28;19924;-66
2021/08/20 07:45:06;;;;;;;;;;;;;;;16.22;100.00;100775.47;5072443;28;20294;-67
2021/08/20 07:47:42;;;;;;;;;;;;;;;16.33;100.00;100780.72;5082314;28;19993;-67
2021/08/20 07:50:09;;;;;;;;;;;;;;;16.41;100.00;100777.16;5079845;28;19924;-67
2021/08/20 07:52:35;;;;;;;;;;;;;;;16.40;100.00;100780.94;5082479;28;20491;-67
2021/08/20 07:55:01;;;;;;;;;;;;;;;16.31;100.00;100784.63;5071005;28;19947;-66
2021/08/20 07:57:27;;;;;;;;;;;;;;;16.24;100.00;100788.00;5081889;28;19931;-67
2021/08/20 07:59:54;;;;;;;;;;;;;;;16.27;100.00;100789.56;5078620;28;19935;-67
2021/08/20 08:02:20;;;;;;;;;;;;;;;16.33;100.00;100796.28;5090978;28;20030;-67
2021/08/20 08:04:47;;;;;;;;;;;;;;;16.37;100.00;100792.22;5089928;28;19924;-66
2021/08/20 08:07:14;;;;;;;;;;;;;;;16.44;100.00;100797.91;5090410;28;20011;-67
2021/08/20 08:09:40;;;;;;;;;;;;;;;16.38;100.00;100789.31;5075995;28;20024;-67
2021/08/20 08:12:07;;;;;;;;;;;;;;;16.39;100.00;100792.91;5077565;28;20311;-66
2021/08/20 08:14:33;;;;;;;;;;;;;;;16.48;100.00;100802.88;5086784;28;19960;-67
2021/08/20 08:16:59;;;;;;;;;;;;;;;16.57;100.00;100801.91;5072972;28;20334;-66
2021/08/20 08:19:26;;;;;;;;;;;;;;;16.55;100.00;100793.00;5073363;28;19955;-67
2021/08/20 08:21:53;;;;;;;;;;;;;;;16.53;100.00;100797.78;5086906;28;20028;-67
2021/08/20 08:24:20;;;;;;;;;;;;;;;16.51;100.00;100798.97;5071603;28;20015;-67
2021/08/20 08:26:46;;;;;;;;;;;;;;;16.52;100.00;100803.44;5062561;28;19928;-67
2021/08/20 08:29:12;;;;;;;;;;;;;;;16.45;100.00;100802.34;5071625;28;19934;-67
2021/08/20 08:31:38;;;;;;;;;;;;;;;16.38;100.00;100804.88;5070912;28;19925;-67
2021/08/20 08:34:07;;;;;;;;;;;;;;;16.30;100.00;100810.28;5089414;28;19930;-66
2021/08/20 08:36:35;;;;;;;;;;;;;;;16.25;100.00;100810.78;5090805;28;19928;-66
2021/08/20 08:39:03;;;;;;;;;;;;;;;16.27;100.00;100819.69;5078263;28;19928;-66
2021/08/20 08:41:29;;;;;;;;;;;;;;;16.23;100.00;100813.69;5090878;28;19932;-66
2021/08/20 08:43:56;;;;;;;;;;;;;;;16.26;100.00;100817.13;5074339;28;20388;-65
2021/08/20 08:46:22;;;;;;;;;;;;;;;16.15;100.00;100819.06;5070726;28;20000;-66
2021/08/20 08:48:49;;;;;;;;;;;;;;;16.05;100.00;100821.91;5083939;28;19981;-67
2021/08/20 08:51:18;;;;;;;;;;;;;;;16.05;100.00;100819.19;5073821;28;19938;-67
2021/08/20 08:53:44;;;;;;;;;;;;;;;16.07;100.00;100827.22;5085942;28;19936;-68
2021/08/20 08:56:11;;;;;;;;;;;;;;;16.05;100.00;100827.38;5076051;28;19924;-67
2021/08/20 08:58:38;;;;;;;;;;;;;;;16.01;100.00;100845.16;5079548;28;19925;-66
2021/08/20 09:01:19;;;;;;;;;;;;;;;15.93;100.00;100838.72;5073590;28;19946;-66
2021/08/20 09:03:45;;;;;;;;;;;;;;;15.84;100.00;100838.66;5087369;28;20363;-69
2021/08/20 09:06:11;;;;;;;;;;;;;;;15.87;100.00;100849.31;5093547;28;19928;-68
2021/08/20 09:08:38;;;;;;;;;;;;;;;15.82;100.00;100846.19;5087506;28;20023;-68
2021/08/20 09:11:07;;;;;;;;;;;;;;;15.79;100.00;100853.81;5087428;28;19931;-70
2021/08/20 09:13:39;;;;;;;;;;;;;;;15.79;100.00;100854.66;5091635;28;19928;-69
2021/08/20 09:16:06;;;;;;;;;;;;;;;15.68;100.00;100846.69;5076241;28;19931;-67
2021/08/20 09:18:32;;;;;;;;;;;;;;;15.65;100.00;100849.75;5092739;28;19931;-66
2021/08/20 09:20:59;;;;;;;;;;;;;;;15.56;100.00;100854.25;5073315;28;19931;-73
2021/08/20 09:23:26;;;;;;;;;;;;;;;15.50;100.00;100863.06;5073760;28;19928;-74
2021/08/20 09:25:53;;;;;;;;;;;;;;;15.47;100.00;100858.75;5074338;28;19935;-72
2021/08/20 09:28:22;;;;;;;;;;;;;;;15.47;100.00;100861.50;5073619;28;19970;-72
2021/08/20 09:31:01;;;;;;;;;;;;;;;15.44;100.00;100866.44;5092343;28;19932;-72
2021/08/20 09:33:28;;;;;;;;;;;;;;;15.42;100.00;100872.06;5083557;28;20358;-74
2021/08/20 09:35:58;;;;;;;;;;;;;;;15.45;100.00;100879.09;5084293;28;19967;-75
2021/08/20 09:38:25;;;;;;;;;;;;;;;15.44;100.00;100872.75;5083883;28;20299;-74
2021/08/20 09:40:55;;;;;;;;;;;;;;;15.41;100.00;100867.59;5093839;28;20508;-75
2021/08/20 09:43:26;;;;;;;;;;;;;;;15.46;100.00;100873.47;5081985;28;20019;-75
2021/08/20 09:46:01;;;;;;;;;;;;;;;15.47;100.00;100866.97;5087135;28;19924;-75
2021/08/20 09:48:41;;;;;;;;;;;;;;;15.45;100.00;100874.47;5080389;28;19929;-74
2021/08/20 09:51:07;;;;;;;;;;;;;;;15.58;100.00;100868.66;5073326;28;19924;-74
2021/08/20 09:53:33;;;;;;;;;;;;;;;15.63;100.00;100874.50;5073745;28;19925;-74
2021/08/20 09:56:01;;;;;;;;;;;;;;;15.70;100.00;100872.88;5073246;28;20027;-74
2021/08/20 09:58:28;;;;;;;;;;;;;;;15.74;100.00;100867.97;5079181;28;20019;-69
2021/08/20 10:00:54;;;;;;;;;;;;;;;15.91;100.00;100866.28;5084675;28;20015;-69
2021/08/20 10:03:23;;;;;;;;;;;;;;;16.11;100.00;100861.50;5077126;28;19977;-68
2021/08/20 10:05:50;;;;;;;;;;;;;;;16.43;100.00;100870.16;5091456;28;19924;-69
2021/08/20 10:08:17;;;;;;;;;;;;;;;16.94;100.00;100860.22;5078886;28;20494;-68
2021/08/20 10:10:46;;;;;;;;;;;;;;;17.46;100.00;100852.91;5073039;28;19931;-70
2021/08/20 10:13:13;;;;;;;;;;;;;;;17.69;100.00;100848.50;5081494;28;20019;-68
2021/08/20 10:15:40;;;;;;;;;;;;;;;17.74;100.00;100848.00;5086276;28;20387;-68
2021/08/20 10:18:07;;;;;;;;;;;;;;;17.61;100.00;100836.63;5092695;28;20299;-68
2021/08/20 10:20:36;;;;;;;;;;;;;;;17.54;100.00;100836.44;5089255;28;19951;-69
2021/08/20 10:23:03;;;;;;;;;;;;;;;17.34;100.00;100831.28;5071722;28;19931;-68
2021/08/20 10:25:29;;;;;;;;;;;;;;;17.22;100.00;100849.03;5071364;28;20017;-68
2021/08/20 10:27:56;;;;;;;;;;;;;;;17.30;100.00;100859.19;5070806;28;19977;-67
2021/08/20 10:30:22;;;;;;;;;;;;;;;17.34;100.00;100860.56;5072580;28;19998;-69
2021/08/20 10:32:58;;;;;;;;;;;;;;;17.79;100.00;100859.31;5075900;28;20039;-68
2021/08/20 10:35:47;;;;;;;;;;;;;;;17.97;100.00;100841.88;5074649;28;20435;-69
2021/08/20 10:38:23;;;;;;;;;;;;;;;17.99;100.00;100859.06;5083454;28;20455;-69
2021/08/20 10:41:05;;;;;;;;;;;;;;;19.04;100.00;100847.25;5078901;28;20411;-68
2021/08/20 10:43:52;;;;;;;;;;;;;;;19.77;100.00;100831.38;5072408;28;20384;-69
2021/08/20 10:46:39;;;;;;;;;;;;;;;19.67;100.00;100833.50;5053508;28;20399;-69
2021/08/20 10:49:20;;;;;;;;;;;;;;;19.70;100.00;100842.28;5070737;28;19928;-68
2021/08/20 10:52:00;;;;;;;;;;;;;;;20.09;100.00;100839.63;5071447;28;19928;-68
2021/08/20 10:54:45;;;;;;;;;;;;;;;20.23;100.00;100836.09;5078758;28;19925;-67
2021/08/20 10:57:49;;;;;;;;;;;;;;;20.30;100.00;100841.72;5091959;28;20010;-71
2021/08/20 11:00:23;;;;;;;;;;;;;;;21.17;100.00;100832.84;5089280;28;19927;-68
2021/08/20 11:02:50;;;;;;;;;;;;;;;20.63;100.00;100844.13;5086418;28;20379;-67
2021/08/20 11:05:18;;;;;;;;;;;;;;;20.08;100.00;100844.28;5071739;28;20415;-67
2021/08/20 11:07:46;;;;;;;;;;;;;;;19.72;100.00;100842.97;5071898;28;19951;-70
2021/08/20 11:10:29;;;;;;;;;;;;;;;19.90;100.00;100842.69;5071276;28;21086;-70
2021/08/20 11:13:00;;;;;;;;;;;;;;;19.70;100.00;100849.69;5070492;28;19948;-69
2021/08/20 11:15:45;;;;;;;;;;;;;;;19.28;100.00;100848.19;5071514;28;19925;-69
2021/08/20 11:18:11;;;;;;;;;;;;;;;19.48;100.00;100854.09;5071320;28;19924;-73
2021/08/20 11:20:38;;;;;;;;;;;;;;;19.77;100.00;100853.41;5071948;28;20250;-73
2021/08/20 11:23:17;;;;;;;;;;;;;;;20.34;100.00;100843.03;5071234;28;20031;-73
2021/08/20 11:25:44;;;;;;;;;;;;;;;20.34;100.00;100857.66;5071350;28;19936;-73
2021/08/20 11:28:17;;;;;;;;;;;;;;;20.37;100.00;100848.19;5071595;28;20368;-73
2021/08/20 11:30:44;;;;;;;;;;;;;;;20.32;100.00;100856.97;5075209;28;19924;-73
2021/08/20 11:33:21;;;;;;;;;;;;;;;19.98;100.00;100849.19;5090768;28;19931;-69
2021/08/20 11:35:49;;;;;;;;;;;;;;;20.57;100.00;100845.75;5073513;28;19925;-69
2021/08/20 11:38:27;;;;;;;;;;;;;;;21.47;100.00;100846.63;5071076;28;19928;-70
2021/08/20 11:40:53;;;;;;;;;;;;;;;21.70;100.00;100838.19;5071218;28;20359;-68
2021/08/20 11:43:22;;;;;;;;;;;;;;;22.39;100.00;100847.84;5075834;28;20299;-67
2021/08/20 11:45:52;;;;;;;;;;;;;;;23.03;100.00;100842.31;5079666;28;19936;-69
2021/08/20 11:48:19;;;;;;;;;;;;;;;23.00;100.00;100820.56;5090591;28;20019;-68
2021/08/20 11:50:46;;;;;;;;;;;;;;;23.37;100.00;100837.81;5086288;28;20027;-68
2021/08/20 11:53:12;;;;;;;;;;;;;;;23.31;100.00;100827.56;5078384;28;19932;-68
2021/08/20 11:55:40;;;;;;;;;;;;;;;22.47;100.00;100835.75;5082349;28;19931;-68
2021/08/20 11:58:06;;;;;;;;;;;;;;;22.76;100.00;100842.16;5061251;28;20418;-70
2021/08/20 12:00:37;;;;;;;;;;;;;;;23.17;100.00;100835.81;5080226;28;19928;-69
2021/08/20 12:03:07;;;;;;;;;;;;;;;23.15;100.00;100843.47;5071353;28;19928;-73
2021/08/20 12:05:33;;;;;;;;;;;;;;;23.81;100.00;100836.47;5070656;28;20368;-73
2021/08/20 12:08:12;;;;;;;;;;;;;;;23.37;100.00;100840.56;5081429;28;20032;-72
2021/08/20 12:10:42;;;;;;;;;;;;;;;22.87;100.00;100841.56;5086434;28;20019;-73
2021/08/20 12:13:10;;;;;;;;;;;;;;;22.60;100.00;100846.06;5076480;28;20014;-73
2021/08/20 12:15:36;;;;;;;;;;;;;;;22.19;100.00;100850.41;5059819;28;20348;-73
2021/08/20 12:18:18;;;;;;;;;;;;;;;22.36;100.00;100842.69;5087540;28;20023;-73
2021/08/20 12:20:44;;;;;;;;;;;;;;;21.94;100.00;100843.53;5087186;28;20026;-69
2021/08/20 12:23:10;;;;;;;;;;;;;;;21.30;100.00;100839.59;5084934;28;19924;-69
2021/08/20 12:25:40;;;;;;;;;;;;;;;20.96;100.00;100843.81;5061148;28;19930;-68
2021/08/20 12:28:10;;;;;;;;;;;;;;;20.62;100.00;100839.66;5074001;28;19925;-69
2021/08/20 12:30:37;;;;;;;;;;;;;;;20.69;100.00;100848.94;5086509;28;20356;-69
2021/08/20 12:33:04;;;;;;;;;;;;;;;20.74;100.00;100835.44;5085758;28;19966;-69
2021/08/20 12:35:30;;;;;;;;;;;;;;;20.66;100.00;100841.84;5084081;28;19928;-69
2021/08/20 12:38:04;;;;;;;;;;;;;;;20.40;100.00;100840.41;5073971;28;19953;-69